This is the latest recevied weather packets stored in our database for station/object VK2EHQ. If no packets are shown the sender has not sent any weather packets the latest 10 day(s).
| Time | Temp. | Humidity | Pressure | Rain* | Wind** | Luminosity | Snow |
|---|---|---|---|---|---|---|---|
| 1788590474 | 28.89° C | 29% | 1008.2 hPa | 0 mm | - | - | - |
| 1788589874 | 28.89° C | 29% | 1008.1 hPa | 0 mm | - | - | - |
| 1788589274 | 28.89° C | 29% | 1008 hPa | 0 mm | - | - | - |
| 1788588673 | 29.44° C | 29% | 1007.8 hPa | 0 mm | - | - | - |
| 1788585673 | 30.56° C | 27% | 1007.4 hPa | 0 mm | - | - | - |
| 1788564673 | 22.22° C | 46% | 1016 hPa | 0 mm | - | - | - |
| 1788562871 | 20.56° C | 46% | 1016.6 hPa | 0 mm | - | - | - |
| 1788561070 | 20° C | 48% | 1017 hPa | 0 mm | - | - | - |
| 1788555070 | 16.11° C | 57% | 1016.9 hPa | 0 mm | - | - | - |
| 1788553873 | 15.56° C | 57% | 1017.1 hPa | 0 mm | - | - | - |
| 1788553270 | 15.56° C | 56% | 1017.1 hPa | 0 mm | - | - | - |
| 1788552670 | 15.56° C | 56% | 1017.1 hPa | 0 mm | - | - | - |
| 1788552070 | 15.56° C | 56% | 1017.1 hPa | 0 mm | - | - | - |
| 1788551470 | 15.56° C | 56% | 1017 hPa | 0 mm | - | - | - |
| 1788550269 | 16.11° C | 55% | 1017.1 hPa | 0 mm | - | - | - |
| 1788549669 | 16.11° C | 54% | 1017.3 hPa | 0 mm | - | - | - |
| 1788549069 | 16.11° C | 55% | 1017.3 hPa | 0 mm | - | - | - |
| 1788546669 | 16.11° C | 55% | 1017.3 hPa | 0 mm | - | - | - |
| 1788546069 | 16.11° C | 55% | 1017.3 hPa | 0 mm | - | - | - |
| 1788545469 | 15.56° C | 57% | 1017.2 hPa | 0 mm | - | - | - |
| 1788544869 | 15.56° C | 58% | 1017 hPa | 0 mm | - | - | - |
| 1788544269 | 15.56° C | 60% | 1017 hPa | 0 mm | - | - | - |
| 1788543068 | 15.56° C | 62% | 1017.1 hPa | 0 mm | - | - | - |
| 1788542468 | 15.56° C | 62% | 1017.2 hPa | 0 mm | - | - | - |
| 1788539468 | 16.11° C | 59% | 1017.9 hPa | 0 mm | - | - | - |
* Rain latest hour (hover to see other rain measurements)
** Current wind speed in m/s (hover to see current wind gust speed)